createdAt,value
2022-07-29T00:03:06.846Z,0.0
2022-07-29T00:08:12.220Z,0.0
2022-07-29T00:13:13.832Z,0.0
2022-07-29T00:18:14.790Z,0.0
2022-07-29T00:23:15.727Z,0.0
2022-07-29T00:28:16.706Z,0.0
2022-07-29T00:33:17.834Z,0.0
2022-07-29T00:38:18.897Z,0.0
2022-07-29T00:43:20.051Z,0.0
2022-07-29T00:48:21.297Z,0.0
2022-07-29T00:53:22.545Z,0.0
2022-07-29T00:58:24.564Z,0.0
2022-07-29T01:03:25.625Z,0.0
2022-07-29T01:08:26.814Z,0.0
2022-07-29T01:13:27.746Z,0.0
2022-07-29T01:33:55.371Z,0.0
2022-07-29T01:38:56.433Z,0.0
2022-07-29T01:44:02.298Z,0.0
2022-07-29T01:49:03.293Z,0.0
2022-07-29T01:54:04.309Z,0.0
2022-07-29T01:59:05.195Z,0.0
2022-07-29T02:04:06.143Z,0.0
2022-07-29T02:09:07.134Z,0.0
2022-07-29T02:19:10.062Z,0.0
2022-07-29T02:24:11.025Z,0.0
2022-07-29T02:29:11.952Z,0.0
2022-07-29T02:34:13.488Z,0.0
2022-07-29T02:39:14.629Z,0.0
2022-07-29T02:44:15.841Z,0.4148
2022-07-29T02:49:17.103Z,0.0
2022-07-29T02:54:18.534Z,0.5333
2022-07-29T02:59:19.981Z,0.9481
2022-07-29T03:04:21.340Z,1.95545
2022-07-29T03:09:22.496Z,4.26645
2022-07-29T03:14:23.376Z,5.6886
2022-07-29T03:19:24.292Z,6.696
2022-07-29T03:24:25.305Z,5.8072
2022-07-29T03:29:33.297Z,6.8738
2022-07-29T03:34:35.361Z,9.7182
2022-07-29T03:39:36.268Z,12.7403
2022-07-29T03:44:37.152Z,17.4216
2022-07-29T03:49:38.482Z,22.9918
2022-07-29T03:54:39.559Z,30.81375
2022-07-29T03:59:40.506Z,38.28015
2022-07-29T04:04:41.512Z,42.90225
2022-07-29T04:09:42.416Z,48.6502
2022-07-29T04:14:43.340Z,53.74635
2022-07-29T04:19:44.227Z,56.53145
2022-07-29T04:24:45.154Z,61.4498
2022-07-29T04:29:56.577Z,68.7384
2022-07-29T04:34:58.524Z,76.50105
2022-07-29T04:39:59.519Z,78.101
2022-07-29T04:50:00.923Z,85.74515
2022-07-29T04:55:01.826Z,80.29365
2022-07-29T05:00:02.744Z,83.13795
2022-07-29T05:05:03.702Z,87.4638
2022-07-29T05:10:04.817Z,98.2486
2022-07-29T05:15:05.803Z,104.0558
2022-07-29T05:20:06.811Z,106.1891
2022-07-29T05:25:09.290Z,136.70585
2022-07-29T05:30:10.368Z,92.38195
2022-07-29T05:35:11.415Z,84.4417
2022-07-29T05:40:12.382Z,98.57835
2022-07-29T05:45:13.369Z,154.73505
2022-07-29T05:50:14.590Z,173.97115
2022-07-29T05:55:15.500Z,200.17835
2022-07-29T06:00:16.432Z,267.60735
2022-07-29T06:10:17.856Z,234.8961
2022-07-29T06:15:19.034Z,305.8852
2022-07-29T06:20:20.013Z,293.0272
2022-07-29T06:25:28.594Z,301.58045
2022-07-29T06:35:38.666Z,315.54465
2022-07-29T06:40:43.722Z,311.81145
2022-07-29T06:45:45.667Z,232.17035
2022-07-29T06:50:46.642Z,230.9435
2022-07-29T06:55:47.636Z,240.2193
2022-07-29T07:00:48.767Z,270.1878
2022-07-29T07:05:50.379Z,314.43125
2022-07-29T07:15:52.006Z,409.48605
2022-07-29T07:20:52.950Z,351.81095
2022-07-29T07:36:19.810Z,380.2382
2022-07-29T07:46:25.860Z,481.58345
2022-07-29T07:51:26.920Z,478.9159
2022-07-29T07:56:30.715Z,542.3215
2022-07-29T08:01:48.112Z,1309.9763
2022-07-29T08:06:56.813Z,517.93155
2022-07-29T08:22:09.004Z,644.12645
2022-07-29T08:32:10.388Z,511.3655
2022-07-29T08:37:11.616Z,447.39275
2022-07-29T08:42:12.568Z,460.1923
2022-07-29T08:47:13.531Z,422.386
2022-07-29T08:52:14.558Z,424.4601
2022-07-29T08:57:15.544Z,326.1524
2022-07-29T09:02:18.781Z,322.6564
2022-07-29T09:07:19.703Z,373.674
2022-07-29T09:12:29.396Z,492.2967
2022-07-29T09:22:31.746Z,622.08215
2022-07-29T09:27:32.801Z,580.3271
2022-07-29T09:32:33.704Z,808.02945
2022-07-29T09:37:34.797Z,723.17535
2022-07-29T09:42:35.791Z,689.6372
2022-07-29T09:47:39.244Z,678.2381
2022-07-29T09:52:46.726Z,747.5905
2022-07-29T09:57:47.660Z,840.91935
2022-07-29T10:02:48.576Z,644.0091
2022-07-29T10:07:53.474Z,1138.5925
2022-07-29T10:12:56.387Z,1213.98395
2022-07-29T10:18:06.022Z,678.4207
2022-07-29T10:23:12.556Z,644.76135
2022-07-29T10:28:16.540Z,645.60945
2022-07-29T10:33:17.939Z,596.40855
2022-07-29T10:38:18.872Z,615.99085
2022-07-29T10:43:20.149Z,809.51405
2022-07-29T10:48:21.128Z,904.73775
2022-07-29T10:53:24.883Z,893.36055
2022-07-29T10:58:26.280Z,796.06125
2022-07-29T11:03:27.598Z,823.85335
2022-07-29T11:08:29.685Z,716.3004
2022-07-29T11:13:30.559Z,658.5843
2022-07-29T11:18:37.113Z,717.3075
2022-07-29T11:23:38.046Z,782.3121
2022-07-29T11:28:39.684Z,709.5432
2022-07-29T11:33:56.095Z,668.0039
2022-07-29T11:38:58.014Z,595.82945
2022-07-29T11:44:01.621Z,628.77555
2022-07-29T11:49:02.703Z,596.0064
2022-07-29T11:54:15.593Z,616.8058
2022-07-29T11:59:17.736Z,616.27225
2022-07-29T12:04:18.722Z,657.9897
2022-07-29T12:09:20.854Z,740.3585
2022-07-29T12:14:21.814Z,536.51445
2022-07-29T12:19:24.332Z,608.15545
2022-07-29T12:24:27.422Z,707.82625
2022-07-29T12:29:35.638Z,764.1796
2022-07-29T12:39:37.377Z,753.15775
2022-07-29T12:44:38.318Z,833.27325
2022-07-29T12:49:39.287Z,584.9671
2022-07-29T12:54:40.219Z,534.30405
2022-07-29T12:59:41.494Z,518.8311
2022-07-29T13:04:42.419Z,606.18625
2022-07-29T13:09:43.348Z,619.1798
2022-07-29T13:14:44.273Z,644.54195
2022-07-29T13:19:45.299Z,835.1715
2022-07-29T13:24:46.228Z,693.0735
2022-07-29T13:29:47.162Z,848.97815
2022-07-29T13:34:48.114Z,651.35625
2022-07-29T13:39:52.919Z,681.9329
2022-07-29T13:44:54.309Z,484.9799
2022-07-29T13:49:55.239Z,487.6345
2022-07-29T13:54:56.293Z,888.26605
2022-07-29T13:59:57.222Z,502.9953
2022-07-29T14:04:58.204Z,1186.0972
2022-07-29T14:09:59.152Z,453.0186
2022-07-29T14:15:00.096Z,927.48065
2022-07-29T14:20:00.991Z,477.15885
2022-07-29T14:25:03.445Z,506.0035
2022-07-29T14:30:16.289Z,594.38565
2022-07-29T14:35:18.180Z,1349.6423
2022-07-29T14:40:19.192Z,1359.7778
2022-07-29T14:45:20.120Z,1293.81095
2022-07-29T14:50:29.890Z,1046.20205
2022-07-29T14:55:33.245Z,1201.5419
2022-07-29T15:00:34.201Z,381.40425
2022-07-29T15:05:35.135Z,408.18195
2022-07-29T15:10:36.133Z,614.0991
2022-07-29T15:15:37.086Z,632.57105
2022-07-29T15:20:37.995Z,617.9344
2022-07-29T15:25:39.260Z,618.4085
2022-07-29T15:30:40.716Z,613.66775
2022-07-29T15:35:41.928Z,621.8458
2022-07-29T15:40:42.991Z,337.51255
2022-07-29T15:45:44.016Z,359.9376
2022-07-29T15:55:45.722Z,529.52285
2022-07-29T16:05:52.303Z,526.56035
2022-07-29T16:10:53.409Z,530.3529
2022-07-29T16:20:54.917Z,486.97645
2022-07-29T16:26:00.506Z,470.6808
2022-07-29T16:32:08.375Z,451.59995
2022-07-29T16:39:22.778Z,444.84445
2022-07-29T16:44:25.212Z,325.48295
2022-07-29T16:49:26.465Z,313.1752
2022-07-29T16:54:27.419Z,281.60655
2022-07-29T16:59:28.322Z,227.5284
2022-07-29T17:04:29.250Z,198.9215
2022-07-29T17:09:30.146Z,192.87265
2022-07-29T17:14:31.060Z,216.75615
2022-07-29T17:19:32.011Z,216.51655
2022-07-29T17:29:33.407Z,201.5342
2022-07-29T17:34:34.329Z,187.19395
2022-07-29T17:39:35.286Z,159.93565
2022-07-29T17:44:36.578Z,156.0452
2022-07-29T17:49:37.596Z,124.4718
2022-07-29T17:54:38.486Z,115.72955
2022-07-29T17:59:39.440Z,108.6471
2022-07-29T18:04:40.329Z,93.5982
2022-07-29T18:09:41.262Z,82.2003
2022-07-29T18:14:42.549Z,76.6668
2022-07-29T18:19:43.521Z,80.778
2022-07-29T18:24:44.452Z,67.27885
2022-07-29T18:29:45.382Z,57.48585
2022-07-29T18:34:52.160Z,49.03915
2022-07-29T18:39:56.028Z,34.59875
2022-07-29T18:44:59.010Z,28.34645
2022-07-29T18:49:59.977Z,19.89975
2022-07-29T18:55:00.876Z,14.14565
2022-07-29T19:00:01.777Z,7.40715
2022-07-29T19:05:02.667Z,6.1035
2022-07-29T19:10:03.677Z,3.79245
2022-07-29T19:15:04.618Z,2.6073
2022-07-29T19:25:05.997Z,0.47405
2022-07-29T19:30:06.920Z,0.47405
2022-07-29T19:35:07.843Z,0.4148
2022-07-29T19:40:08.828Z,0.0
2022-07-29T19:45:09.781Z,0.0
2022-07-29T19:50:10.728Z,0.0
2022-07-29T19:55:11.615Z,0.0
2022-07-29T20:10:13.453Z,0.0
2022-07-29T20:15:16.590Z,0.0
2022-07-29T20:20:17.653Z,0.0
2022-07-29T20:25:18.645Z,0.0
2022-07-29T20:30:19.569Z,0.0
2022-07-29T20:35:22.062Z,0.0
2022-07-29T20:40:22.990Z,0.0
2022-07-29T20:45:23.905Z,0.0
2022-07-29T20:50:24.802Z,0.0
2022-07-29T20:55:25.709Z,0.0
2022-07-29T21:00:26.614Z,0.0
2022-07-29T21:05:27.527Z,0.0
2022-07-29T21:10:28.437Z,0.0
2022-07-29T21:15:29.397Z,0.0
2022-07-29T21:20:30.618Z,0.0
2022-07-29T21:25:31.516Z,0.0
2022-07-29T21:30:32.410Z,0.0
2022-07-29T21:36:06.171Z,0.0
2022-07-29T21:41:11.514Z,0.0
2022-07-29T21:46:12.714Z,0.0
2022-07-29T21:51:13.662Z,0.0
2022-07-29T21:56:15.200Z,0.0
2022-07-29T22:01:18.541Z,0.0
2022-07-29T22:06:19.479Z,0.0
2022-07-29T22:11:20.425Z,0.0
2022-07-29T22:16:21.412Z,0.0
2022-07-29T22:21:22.505Z,0.0
2022-07-29T22:26:23.539Z,0.0
2022-07-29T22:31:24.483Z,0.0
2022-07-29T22:36:25.436Z,0.0
2022-07-29T22:41:26.410Z,0.0
2022-07-29T22:46:27.420Z,0.0
2022-07-29T22:51:28.324Z,0.0
2022-07-29T22:56:29.221Z,0.0
2022-07-29T23:01:37.641Z,0.0
2022-07-29T23:06:38.992Z,0.0
2022-07-29T23:11:40.129Z,0.0
2022-07-29T23:16:41.088Z,0.0
2022-07-29T23:21:42.147Z,0.0
2022-07-29T23:26:43.401Z,0.0
2022-07-29T23:31:44.356Z,0.0
2022-07-29T23:36:49.259Z,0.0
2022-07-29T23:41:50.193Z,0.0
2022-07-29T23:46:51.224Z,0.0
2022-07-29T23:51:52.259Z,0.0
2022-07-29T23:56:53.147Z,0.0
